Terminal Aerodrome Forecast
Issued by NWS Binghamton, NY

Home | Current Version | Previous Version | Text Only | Print | Product List | Glossary On
Versions: 1 2 3 4 5 6 7 8 9 10 11 12 13 14 15 16
136
FTUS41 KBGM 082320
TAFSYR
TAF
KSYR 082320Z 0900/0924 08011KT P6SM OVC100
      TEMPO 0907/0911 4SM -SHSN OVC035
     FM091200 15007KT P6SM OVC060
     FM091900 VRB03KT P6SM BKN050 OVC200=

USA.gov is the U.S. government's official web portal to all federal, state and local government web resources and services.